createdAt,value
2019-05-06T00:02:04.546Z,9.87
2019-05-06T00:04:34.173Z,7.90
2019-05-06T00:07:04.292Z,8.77
2019-05-06T00:09:34.857Z,8.80
2019-05-06T00:12:04.553Z,7.97
2019-05-06T00:14:34.006Z,8.40
2019-05-06T00:17:03.924Z,7.17
2019-05-06T00:19:34.190Z,7.50
2019-05-06T00:22:04.738Z,8.47
2019-05-06T00:24:41.109Z,8.00
2019-05-06T00:27:18.263Z,8.00
2019-05-06T00:29:48.172Z,8.60
2019-05-06T00:32:18.311Z,7.37
2019-05-06T00:34:47.482Z,8.03
2019-05-06T00:37:16.653Z,7.60
2019-05-06T00:39:53.797Z,10.53
2019-05-06T00:42:30.470Z,12.60
2019-05-06T00:44:59.778Z,9.87
2019-05-06T00:47:29.313Z,8.57
2019-05-06T00:49:58.491Z,9.77
2019-05-06T00:52:28.083Z,9.93
2019-05-06T00:54:57.349Z,8.37
2019-05-06T00:57:44.627Z,8.37
2019-05-06T01:00:27.622Z,8.57
2019-05-06T01:02:56.813Z,7.87
2019-05-06T01:05:26.690Z,7.00
2019-05-06T01:07:56.304Z,7.50
2019-05-06T01:10:25.661Z,7.37
2019-05-06T01:13:17.239Z,7.80
2019-05-06T01:15:46.888Z,7.93
2019-05-06T01:18:16.542Z,7.77
2019-05-06T01:20:46.149Z,7.57
2019-05-06T01:23:15.437Z,7.17
2019-05-06T01:25:44.703Z,7.47
2019-05-06T01:28:14.291Z,6.57
2019-05-06T01:30:44.342Z,8.00
2019-05-06T01:33:14.585Z,9.07
2019-05-06T01:35:44.408Z,11.87
2019-05-06T01:38:24.471Z,10.80
2019-05-06T01:41:18.932Z,8.43
2019-05-06T01:43:48.154Z,7.93
2019-05-06T01:46:17.691Z,7.73
2019-05-06T01:48:47.330Z,7.60
2019-05-06T01:51:17.947Z,6.83
2019-05-06T01:53:47.502Z,7.93
2019-05-06T01:56:16.886Z,7.17
2019-05-06T01:58:46.897Z,8.40
2019-05-06T02:01:16.203Z,7.60
2019-05-06T02:03:45.591Z,8.43
2019-05-06T02:06:14.958Z,7.97
2019-05-06T02:08:44.996Z,7.87
2019-05-06T02:11:14.843Z,7.37
2019-05-06T02:13:45.021Z,7.63
2019-05-06T02:16:14.911Z,7.93
2019-05-06T02:18:45.162Z,8.13
2019-05-06T02:21:26.322Z,7.37
2019-05-06T02:24:00.051Z,7.10
2019-05-06T02:26:29.387Z,7.77
2019-05-06T02:29:01.271Z,7.90
2019-05-06T02:32:20.854Z,7.90
2019-05-06T02:34:47.488Z,7.13
2019-05-06T02:37:25.159Z,7.30
2019-05-06T02:39:53.737Z,6.90
2019-05-06T02:42:23.978Z,7.50
2019-05-06T02:44:54.390Z,7.43
2019-05-06T02:47:48.628Z,7.80
2019-05-06T02:50:20.327Z,7.27
2019-05-06T02:52:49.555Z,6.97
2019-05-06T02:55:19.083Z,6.77
2019-05-06T02:57:48.338Z,7.10
2019-05-06T03:00:19.789Z,7.50
2019-05-06T03:02:49.330Z,6.60
2019-05-06T03:05:18.564Z,7.87
2019-05-06T03:07:47.757Z,7.67
2019-05-06T03:10:17.405Z,7.33
2019-05-06T03:12:46.572Z,7.77
2019-05-06T03:15:16.960Z,7.90
2019-05-06T03:17:46.684Z,7.50
2019-05-06T03:20:32.455Z,7.50
2019-05-06T03:23:05.243Z,7.83
2019-05-06T03:25:36.390Z,7.40
2019-05-06T03:28:06.020Z,6.97
2019-05-06T03:30:36.580Z,6.63
2019-05-06T03:33:40.352Z,7.07
2019-05-06T03:35:52.281Z,6.60
2019-05-06T03:38:08.297Z,6.97
2019-05-06T03:40:41.768Z,7.30
2019-05-06T03:43:08.363Z,6.90
2019-05-06T03:45:49.761Z,6.80
2019-05-06T03:48:24.455Z,6.73
2019-05-06T03:50:56.027Z,7.40
2019-05-06T03:53:24.696Z,7.17
2019-05-06T03:55:55.827Z,7.67
2019-05-06T03:58:26.857Z,8.20
2019-05-06T04:00:57.419Z,7.40
2019-05-06T04:03:42.482Z,6.70
2019-05-06T04:05:57.837Z,7.17
2019-05-06T04:08:27.473Z,7.43
2019-05-06T04:10:56.812Z,7.10
2019-05-06T04:13:25.980Z,7.33
2019-05-06T04:16:13.917Z,7.60
2019-05-06T04:18:47.803Z,7.70
2019-05-06T04:21:25.913Z,7.47
2019-05-06T04:24:03.846Z,7.50
2019-05-06T04:27:03.355Z,7.93
2019-05-06T04:29:35.584Z,7.17
2019-05-06T04:32:05.600Z,7.20
2019-05-06T04:34:34.975Z,7.83
2019-05-06T04:37:04.238Z,8.87
2019-05-06T04:39:33.472Z,7.70
2019-05-06T04:42:04.276Z,7.53
2019-05-06T04:44:33.473Z,6.63
2019-05-06T04:47:05.401Z,8.23
2019-05-06T04:49:35.065Z,7.37
2019-05-06T04:52:04.879Z,7.23
2019-05-06T04:54:34.221Z,7.80
2019-05-06T04:57:05.036Z,7.13
2019-05-06T04:59:35.336Z,8.10
2019-05-06T05:02:04.940Z,7.27
2019-05-06T05:04:36.864Z,6.93
2019-05-06T05:07:05.145Z,8.50
2019-05-06T05:09:34.388Z,8.17
2019-05-06T05:12:13.449Z,7.20
2019-05-06T05:14:55.924Z,6.70
2019-05-06T05:17:53.332Z,7.90
2019-05-06T05:20:36.461Z,8.03
2019-05-06T05:22:54.112Z,8.27
2019-05-06T05:25:23.284Z,7.17
2019-05-06T05:27:52.826Z,8.10
2019-05-06T05:30:22.121Z,7.70
2019-05-06T05:32:52.167Z,8.60
2019-05-06T05:35:22.694Z,7.87
2019-05-06T05:37:52.999Z,7.53
2019-05-06T05:40:22.606Z,6.90
2019-05-06T05:42:58.984Z,7.47
2019-05-06T05:45:28.331Z,7.17
2019-05-06T05:47:59.529Z,7.37
2019-05-06T05:50:36.066Z,7.20
2019-05-06T05:53:05.219Z,6.90
2019-05-06T05:55:34.961Z,7.27
2019-05-06T05:58:04.286Z,7.03
2019-05-06T06:00:35.055Z,6.83
2019-05-06T06:03:07.080Z,7.80
2019-05-06T06:05:35.720Z,7.67
2019-05-06T06:08:05.021Z,7.10
2019-05-06T06:10:58.997Z,7.53
2019-05-06T06:13:28.213Z,7.00
2019-05-06T06:16:09.149Z,7.53
2019-05-06T06:18:46.620Z,7.37
2019-05-06T06:21:34.836Z,6.87
2019-05-06T06:24:08.917Z,6.97
2019-05-06T06:26:38.222Z,6.63
2019-05-06T06:29:07.463Z,7.53
2019-05-06T06:31:42.898Z,7.37
2019-05-06T06:34:17.889Z,7.40
2019-05-06T06:37:06.105Z,8.30
2019-05-06T06:39:42.415Z,8.40
2019-05-06T06:42:12.705Z,7.67
2019-05-06T06:44:42.434Z,7.80
2019-05-06T06:47:12.979Z,7.57
2019-05-06T06:49:42.613Z,7.17
2019-05-06T06:52:14.765Z,7.63
2019-05-06T06:54:43.817Z,7.70
2019-05-06T06:57:31.514Z,8.13
2019-05-06T07:00:06.289Z,7.37
2019-05-06T07:02:40.010Z,8.23
2019-05-06T07:05:33.217Z,7.60
2019-05-06T07:08:02.364Z,7.63
2019-05-06T07:10:44.052Z,9.97
2019-05-06T07:13:15.281Z,8.17
2019-05-06T07:15:44.635Z,9.07
2019-05-06T07:18:14.165Z,8.80
2019-05-06T07:21:05.229Z,8.43
2019-05-06T07:23:34.633Z,8.87
2019-05-06T07:26:04.207Z,7.87
2019-05-06T07:28:33.475Z,8.10
2019-05-06T07:31:17.883Z,8.23
2019-05-06T07:33:33.913Z,8.27
2019-05-06T07:36:03.385Z,7.80
2019-05-06T07:38:32.931Z,8.40
2019-05-06T07:41:16.978Z,8.37
2019-05-06T07:44:07.226Z,8.17
2019-05-06T07:46:58.679Z,7.53
2019-05-06T07:49:28.122Z,8.07
2019-05-06T07:51:57.376Z,8.27
2019-05-06T07:54:27.092Z,7.47
2019-05-06T07:56:56.353Z,7.87
2019-05-06T07:59:25.558Z,7.43
2019-05-06T08:01:54.819Z,7.50
2019-05-06T08:04:23.991Z,7.73
2019-05-06T08:06:53.173Z,6.80
2019-05-06T08:09:22.339Z,7.30
2019-05-06T08:11:53.034Z,7.20
2019-05-06T08:14:24.116Z,6.70
2019-05-06T08:17:02.284Z,7.60
2019-05-06T08:19:33.538Z,6.60
2019-05-06T08:22:04.915Z,6.53
2019-05-06T08:24:34.145Z,5.70
2019-05-06T08:27:03.719Z,6.13
2019-05-06T08:29:33.114Z,6.20
2019-05-06T08:32:03.019Z,5.67
2019-05-06T08:34:34.258Z,5.97
2019-05-06T08:37:22.772Z,6.60
2019-05-06T08:39:52.661Z,6.50
2019-05-06T08:42:22.488Z,6.57
2019-05-06T08:44:53.081Z,6.83
2019-05-06T08:47:22.808Z,6.47
2019-05-06T08:50:26.385Z,7.07
2019-05-06T08:53:08.434Z,7.10
2019-05-06T08:55:39.351Z,6.73
2019-05-06T08:58:08.505Z,6.30
2019-05-06T09:00:43.461Z,6.43
2019-05-06T09:03:14.273Z,6.03
2019-05-06T09:05:46.552Z,5.70
2019-05-06T09:08:15.810Z,6.13
2019-05-06T09:10:44.942Z,6.70
2019-05-06T09:13:14.409Z,6.63
2019-05-06T09:15:43.634Z,6.80
2019-05-06T09:18:12.876Z,6.43
2019-05-06T09:20:43.126Z,6.73
2019-05-06T09:23:12.625Z,7.10
2019-05-06T09:25:42.474Z,8.47
2019-05-06T09:28:33.907Z,9.33
2019-05-06T09:31:18.646Z,9.03
2019-05-06T09:33:50.449Z,8.73
2019-05-06T09:36:19.743Z,9.23
2019-05-06T09:38:48.976Z,9.43
2019-05-06T09:41:22.950Z,10.13
2019-05-06T09:43:52.791Z,9.10
2019-05-06T09:46:23.081Z,9.63
2019-05-06T09:49:15.771Z,8.47
2019-05-06T09:51:45.218Z,9.50
2019-05-06T09:54:33.664Z,8.87
2019-05-06T09:57:06.711Z,8.73
2019-05-06T09:59:35.887Z,9.17
2019-05-06T10:02:05.598Z,9.27
2019-05-06T10:04:35.492Z,9.33
2019-05-06T10:07:04.895Z,9.10
2019-05-06T10:09:34.248Z,9.03
2019-05-06T10:12:03.536Z,10.10
2019-05-06T10:14:32.720Z,10.40
2019-05-06T10:17:09.968Z,10.73
2019-05-06T10:19:40.020Z,10.63
2019-05-06T10:22:09.480Z,10.90
2019-05-06T10:24:38.812Z,10.47
2019-05-06T10:27:08.466Z,10.33
2019-05-06T10:29:49.150Z,11.47
2019-05-06T10:32:38.982Z,10.83
2019-05-06T10:35:08.854Z,10.30
2019-05-06T10:38:03.247Z,11.33
2019-05-06T10:40:48.674Z,11.60
2019-05-06T10:43:28.795Z,10.40
2019-05-06T10:46:01.025Z,9.77
2019-05-06T10:48:29.007Z,9.07
2019-05-06T10:51:04.824Z,9.87
2019-05-06T10:53:34.100Z,9.40
2019-05-06T10:56:23.091Z,8.60
2019-05-06T10:58:52.854Z,8.97
2019-05-06T11:01:32.962Z,9.30
2019-05-06T11:04:02.827Z,9.60
2019-05-06T11:06:33.660Z,9.03
2019-05-06T11:09:03.409Z,8.73
2019-05-06T11:11:38.384Z,8.37
2019-05-06T11:14:04.024Z,7.70
2019-05-06T11:16:33.656Z,7.50
2019-05-06T11:19:05.164Z,8.13
2019-05-06T11:21:34.287Z,6.97
2019-05-06T11:24:06.263Z,6.50
2019-05-06T11:26:34.980Z,5.80
2019-05-06T11:29:09.737Z,5.80
2019-05-06T11:31:55.918Z,5.60
2019-05-06T11:34:52.602Z,6.10
2019-05-06T11:37:47.186Z,5.60
2019-05-06T11:40:16.495Z,5.23
2019-05-06T11:42:43.613Z,5.37
2019-05-06T11:45:14.218Z,5.10
2019-05-06T11:47:43.393Z,4.83
2019-05-06T11:50:13.187Z,4.70
2019-05-06T11:52:43.574Z,5.30
2019-05-06T11:55:27.568Z,6.93
2019-05-06T11:57:46.396Z,5.73
2019-05-06T12:00:18.761Z,5.90
2019-05-06T12:02:48.786Z,5.43
2019-05-06T12:05:18.572Z,5.30
2019-05-06T12:08:01.030Z,5.70
2019-05-06T12:10:19.039Z,6.23
2019-05-06T12:12:49.939Z,6.13
2019-05-06T12:15:19.636Z,4.43
2019-05-06T12:17:48.813Z,4.30
2019-05-06T12:20:18.162Z,4.43
2019-05-06T12:22:47.389Z,4.47
2019-05-06T12:25:16.936Z,5.27
2019-05-06T12:27:46.222Z,4.47
2019-05-06T12:30:23.054Z,4.97
2019-05-06T12:33:10.239Z,4.97
2019-05-06T12:35:43.078Z,5.50
2019-05-06T12:38:26.511Z,5.67
2019-05-06T12:40:46.650Z,5.37
2019-05-06T12:43:34.170Z,5.97
2019-05-06T12:46:16.456Z,5.43
2019-05-06T12:48:46.081Z,6.00
2019-05-06T12:51:15.313Z,6.50
2019-05-06T12:53:44.492Z,6.30
2019-05-06T12:56:14.570Z,5.23
2019-05-06T12:58:44.454Z,5.63
2019-05-06T13:01:13.960Z,6.20
2019-05-06T13:03:43.734Z,5.43
2019-05-06T13:06:13.299Z,5.60
2019-05-06T13:08:57.213Z,5.73
2019-05-06T13:11:14.080Z,6.07
2019-05-06T13:13:56.794Z,6.57
2019-05-06T13:16:15.021Z,6.77
2019-05-06T13:18:47.395Z,7.20
2019-05-06T13:21:16.352Z,6.33
2019-05-06T13:23:49.775Z,6.23
2019-05-06T13:26:19.376Z,6.00
2019-05-06T13:28:53.803Z,7.10
2019-05-06T13:31:25.601Z,6.80
2019-05-06T13:33:57.807Z,6.63
2019-05-06T13:36:27.439Z,7.43
2019-05-06T13:39:13.418Z,5.77
2019-05-06T13:41:28.298Z,5.07
2019-05-06T13:44:07.700Z,5.00
2019-05-06T13:46:40.544Z,4.67
2019-05-06T13:49:37.884Z,3.73
2019-05-06T13:52:09.674Z,3.77
2019-05-06T13:54:39.280Z,3.83
2019-05-06T13:57:09.003Z,3.23
2019-05-06T13:59:38.762Z,3.57
2019-05-06T14:02:29.841Z,3.60
2019-05-06T14:04:59.360Z,3.37
2019-05-06T14:07:28.676Z,3.23
2019-05-06T14:09:57.851Z,3.70
2019-05-06T14:12:27.455Z,3.20
2019-05-06T14:14:56.715Z,3.17
2019-05-06T14:17:26.479Z,3.70
2019-05-06T14:19:55.759Z,3.83
2019-05-06T14:22:25.700Z,4.10
2019-05-06T14:25:01.697Z,3.70
2019-05-06T14:27:32.871Z,3.83
2019-05-06T14:30:16.630Z,3.90
2019-05-06T14:32:45.773Z,3.70
2019-05-06T14:35:15.129Z,3.80
2019-05-06T14:37:44.259Z,3.63
2019-05-06T14:40:16.959Z,3.73
2019-05-06T14:42:46.643Z,3.90
2019-05-06T14:45:15.985Z,3.97
2019-05-06T14:47:45.163Z,4.03
2019-05-06T14:50:15.001Z,4.50
2019-05-06T14:52:44.263Z,4.43
2019-05-06T14:55:22.595Z,4.77
2019-05-06T14:57:53.478Z,5.37
2019-05-06T15:00:23.288Z,4.73
2019-05-06T15:02:53.401Z,4.63
2019-05-06T15:05:22.819Z,4.70
2019-05-06T15:07:52.843Z,5.33
2019-05-06T15:10:25.600Z,5.43
2019-05-06T15:12:53.621Z,5.20
2019-05-06T15:15:23.603Z,4.20
2019-05-06T15:17:53.400Z,5.20
2019-05-06T15:20:23.049Z,5.57
2019-05-06T15:22:53.053Z,4.90
2019-05-06T15:25:22.382Z,4.60
2019-05-06T15:27:53.125Z,5.90
2019-05-06T15:30:30.085Z,6.70
2019-05-06T15:32:59.489Z,5.67
2019-05-06T15:35:46.797Z,6.00
2019-05-06T15:38:22.377Z,5.03
2019-05-06T15:40:52.641Z,5.10
2019-05-06T15:43:22.603Z,5.53
2019-05-06T15:45:52.761Z,5.10
2019-05-06T15:48:22.291Z,5.27
2019-05-06T15:50:53.311Z,5.70
2019-05-06T15:53:22.854Z,4.73
2019-05-06T15:55:53.476Z,4.83
2019-05-06T15:58:23.332Z,4.50
2019-05-06T16:00:53.295Z,5.00
2019-05-06T16:03:23.251Z,3.97
2019-05-06T16:05:55.108Z,4.33
2019-05-06T16:08:24.515Z,4.37
2019-05-06T16:10:58.215Z,4.40
2019-05-06T16:13:25.275Z,4.30
2019-05-06T16:15:54.475Z,4.90
2019-05-06T16:18:23.829Z,5.00
2019-05-06T16:20:57.256Z,5.30
2019-05-06T16:23:43.496Z,5.30
2019-05-06T16:26:12.820Z,4.60
2019-05-06T16:28:45.022Z,5.20
2019-05-06T16:31:13.402Z,4.73
2019-05-06T16:33:43.107Z,4.93
2019-05-06T16:36:13.289Z,4.40
2019-05-06T16:38:42.915Z,4.70
2019-05-06T16:41:15.683Z,6.57
2019-05-06T16:43:43.349Z,5.13
2019-05-06T16:46:12.792Z,5.10
2019-05-06T16:48:45.014Z,4.90
2019-05-06T16:51:13.174Z,4.47
2019-05-06T16:53:43.064Z,5.20
2019-05-06T16:56:19.148Z,4.77
2019-05-06T16:58:52.661Z,4.80
2019-05-06T17:01:22.474Z,5.23
2019-05-06T17:04:03.184Z,4.97
2019-05-06T17:06:35.139Z,5.60
2019-05-06T17:09:19.905Z,6.17
2019-05-06T17:11:38.724Z,6.03
2019-05-06T17:14:08.237Z,6.07
2019-05-06T17:16:37.562Z,6.17
2019-05-06T17:19:07.023Z,5.40
2019-05-06T17:21:36.254Z,5.37
2019-05-06T17:24:06.280Z,5.63
2019-05-06T17:26:35.913Z,6.17
2019-05-06T17:29:32.241Z,6.33
2019-05-06T17:32:22.238Z,7.47
2019-05-06T17:34:57.122Z,5.83
2019-05-06T17:37:42.548Z,5.97
2019-05-06T17:40:14.372Z,5.60
2019-05-06T17:42:43.806Z,4.93
2019-05-06T17:45:32.237Z,5.40
2019-05-06T17:48:15.262Z,5.90
2019-05-06T17:51:03.511Z,5.97
2019-05-06T17:53:34.373Z,5.90
2019-05-06T17:56:04.126Z,5.27
2019-05-06T17:58:33.438Z,5.60
2019-05-06T18:01:03.286Z,5.50
2019-05-06T18:03:32.849Z,5.70
2019-05-06T18:06:07.216Z,5.23
2019-05-06T18:08:33.845Z,4.93
2019-05-06T18:11:03.421Z,5.13
2019-05-06T18:13:33.012Z,5.30
2019-05-06T18:16:03.625Z,5.13
2019-05-06T18:18:32.892Z,4.80
2019-05-06T18:21:02.639Z,4.80
2019-05-06T18:23:36.816Z,5.07
2019-05-06T18:26:06.477Z,4.70
2019-05-06T18:28:36.093Z,5.00
2019-05-06T18:31:05.250Z,5.70
2019-05-06T18:33:34.416Z,5.67
2019-05-06T18:36:06.331Z,6.10
2019-05-06T18:38:34.780Z,5.20
2019-05-06T18:41:04.375Z,5.37
2019-05-06T18:43:34.034Z,5.83
2019-05-06T18:46:03.664Z,5.40
2019-05-06T18:48:35.287Z,6.03
2019-05-06T18:51:04.424Z,5.37
2019-05-06T18:53:33.648Z,6.00
2019-05-06T18:56:03.286Z,5.97
2019-05-06T18:58:32.944Z,5.60
2019-05-06T19:01:03.999Z,6.07
2019-05-06T19:03:48.828Z,5.67
2019-05-06T19:06:18.451Z,5.70
2019-05-06T19:08:56.891Z,6.10
2019-05-06T19:11:26.235Z,5.50
2019-05-06T19:13:56.110Z,5.83
2019-05-06T19:16:25.519Z,6.27
2019-05-06T19:18:55.067Z,6.03
2019-05-06T19:21:24.577Z,6.37
2019-05-06T19:23:54.881Z,6.57
2019-05-06T19:26:24.217Z,6.43
2019-05-06T19:28:53.524Z,7.23
2019-05-06T19:31:22.991Z,7.03
2019-05-06T19:33:52.743Z,6.80
2019-05-06T19:36:23.490Z,7.57
2019-05-06T19:38:53.076Z,7.23
2019-05-06T19:41:22.434Z,7.03
2019-05-06T19:43:52.421Z,7.80
2019-05-06T19:46:21.794Z,7.77
2019-05-06T19:48:52.424Z,7.43
2019-05-06T19:51:22.535Z,8.07
2019-05-06T19:53:52.328Z,8.77
2019-05-06T19:56:23.276Z,8.30
2019-05-06T19:58:52.705Z,7.97
2019-05-06T20:01:22.941Z,8.33
2019-05-06T20:03:52.764Z,8.17
2019-05-06T20:06:41.423Z,8.50
2019-05-06T20:09:45.263Z,8.10
2019-05-06T20:12:23.048Z,8.83
2019-05-06T20:14:52.551Z,9.43
2019-05-06T20:17:22.378Z,9.83
2019-05-06T20:19:51.954Z,9.50
2019-05-06T20:22:22.987Z,10.07
2019-05-06T20:24:52.420Z,9.90
2019-05-06T20:27:21.976Z,9.33
2019-05-06T20:29:52.300Z,9.53
2019-05-06T20:32:22.671Z,9.57
2019-05-06T20:34:52.120Z,9.77
2019-05-06T20:37:22.252Z,9.87
2019-05-06T20:39:51.659Z,10.37
2019-05-06T20:42:22.232Z,11.30
2019-05-06T20:44:52.473Z,11.30
2019-05-06T20:47:22.153Z,10.97
2019-05-06T20:49:52.642Z,10.90
2019-05-06T20:52:23.005Z,11.27
2019-05-06T20:54:52.396Z,10.97
2019-05-06T20:57:23.044Z,11.97
2019-05-06T20:59:52.676Z,11.97
2019-05-06T21:02:25.686Z,12.53
2019-05-06T21:04:53.734Z,11.40
2019-05-06T21:07:23.205Z,11.00
2019-05-06T21:09:53.384Z,12.10
2019-05-06T21:12:23.131Z,11.77
2019-05-06T21:14:52.459Z,12.40
2019-05-06T21:17:22.914Z,11.10
2019-05-06T21:19:52.759Z,11.70
2019-05-06T21:22:22.378Z,11.07
2019-05-06T21:24:52.389Z,11.53
2019-05-06T21:27:23.041Z,12.03
2019-05-06T21:29:52.874Z,11.67
2019-05-06T21:32:22.144Z,10.90
2019-05-06T21:34:52.525Z,11.70
2019-05-06T21:37:22.985Z,11.27
2019-05-06T21:39:53.076Z,11.60
2019-05-06T21:42:24.104Z,11.53
2019-05-06T21:44:53.552Z,12.07
2019-05-06T21:47:23.516Z,11.77
2019-05-06T21:49:52.917Z,11.80
2019-05-06T21:52:34.346Z,12.00
2019-05-06T21:54:53.228Z,11.63
2019-05-06T21:57:22.715Z,11.63
2019-05-06T21:59:52.547Z,11.87
2019-05-06T22:02:23.023Z,11.30
2019-05-06T22:04:55.355Z,11.17
2019-05-06T22:07:23.323Z,11.53
2019-05-06T22:09:52.819Z,11.33
2019-05-06T22:12:24.317Z,11.27
2019-05-06T22:14:53.258Z,11.20
2019-05-06T22:17:22.652Z,11.23
2019-05-06T22:19:52.470Z,11.40
2019-05-06T22:22:23.449Z,11.43
2019-05-06T22:24:57.535Z,11.87
2019-05-06T22:27:25.464Z,11.60
2019-05-06T22:29:54.644Z,11.40
2019-05-06T22:32:24.561Z,11.23
2019-05-06T22:34:54.043Z,11.90
2019-05-06T22:37:23.213Z,11.70
2019-05-06T22:39:52.819Z,12.10
2019-05-06T22:42:22.581Z,11.73
2019-05-06T22:44:53.572Z,11.53
2019-05-06T22:47:23.186Z,11.67
2019-05-06T22:49:54.354Z,11.77
2019-05-06T22:52:23.856Z,11.57
2019-05-06T22:54:53.429Z,11.33
2019-05-06T22:57:23.527Z,11.63
2019-05-06T22:59:53.830Z,12.40
2019-05-06T23:02:32.332Z,12.53
2019-05-06T23:05:04.230Z,11.90
2019-05-06T23:07:34.077Z,12.00
2019-05-06T23:10:03.649Z,12.10
2019-05-06T23:12:32.921Z,12.20
2019-05-06T23:15:02.765Z,11.97
2019-05-06T23:17:34.265Z,12.00
2019-05-06T23:20:03.397Z,11.57
2019-05-06T23:22:33.271Z,12.57
2019-05-06T23:25:02.485Z,13.77
2019-05-06T23:27:31.713Z,12.43
2019-05-06T23:30:03.045Z,12.43
2019-05-06T23:32:32.625Z,11.87
2019-05-06T23:35:03.310Z,12.03
2019-05-06T23:37:30.993Z,11.40
2019-05-06T23:40:39.115Z,11.60
2019-05-06T23:43:44.395Z,12.37
2019-05-06T23:46:50.013Z,11.40
2019-05-06T23:49:55.532Z,12.33
2019-05-06T23:53:02.949Z,11.97
2019-05-06T23:56:08.107Z,11.27
2019-05-06T23:58:37.593Z,12.07
